createdAt,value
2022-12-18T00:00:10.772Z,101847.41
2022-12-18T00:03:32.400Z,101852.56
2022-12-18T00:06:54.785Z,101826.69
2022-12-18T00:10:16.955Z,101862.69
2022-12-18T00:13:39.307Z,101859.97
2022-12-18T00:17:02.894Z,101862.16
2022-12-18T00:20:26.784Z,101853.19
2022-12-18T00:23:49.914Z,101846.00
2022-12-18T00:27:11.890Z,101855.97
2022-12-18T00:30:34.014Z,101854.66
2022-12-18T00:33:58.221Z,101857.09
2022-12-18T00:37:20.506Z,101851.41
2022-12-18T00:40:44.466Z,101866.16
2022-12-18T00:44:06.958Z,101860.03
2022-12-18T00:47:28.556Z,101849.78
2022-12-18T00:50:52.589Z,101864.00
2022-12-18T00:54:14.578Z,101851.78
2022-12-18T00:57:36.621Z,101839.28
2022-12-18T01:00:58.524Z,101843.34
2022-12-18T01:04:20.649Z,101827.59
2022-12-18T01:07:44.023Z,101825.66
2022-12-18T01:11:10.021Z,101835.72
2022-12-18T01:14:31.962Z,101849.94
2022-12-18T01:17:54.509Z,101860.66
2022-12-18T01:21:18.639Z,101832.38
2022-12-18T01:24:41.874Z,101859.38
2022-12-18T01:28:04.014Z,101842.44
2022-12-18T01:31:28.062Z,101859.47
2022-12-18T01:34:50.043Z,101852.47
2022-12-18T01:38:12.172Z,101843.06
2022-12-18T01:41:50.744Z,101849.44
2022-12-18T01:45:27.335Z,101851.28
2022-12-18T01:48:52.199Z,101850.63
2022-12-18T01:52:13.958Z,101845.34
2022-12-18T01:55:43.158Z,101849.41
2022-12-18T01:59:10.359Z,101840.13
2022-12-18T02:02:33.091Z,101861.41
2022-12-18T02:06:06.622Z,101861.53
2022-12-18T02:09:34.099Z,101864.03
2022-12-18T02:13:00.835Z,101859.00
2022-12-18T02:16:32.179Z,101862.16
2022-12-18T02:20:10.428Z,101860.06
2022-12-18T02:23:48.046Z,101868.03
2022-12-18T02:27:13.546Z,101848.13
2022-12-18T02:30:37.431Z,101824.59
2022-12-18T02:34:02.528Z,101853.34
2022-12-18T02:37:27.049Z,101848.88
2022-12-18T02:40:51.911Z,101859.03
2022-12-18T02:44:15.973Z,101851.38
2022-12-18T02:47:41.746Z,101847.53
2022-12-18T02:51:10.637Z,101837.03
2022-12-18T02:54:47.526Z,101833.31
2022-12-18T02:58:17.448Z,101838.09
2022-12-18T03:01:48.354Z,101840.38
2022-12-18T03:05:15.564Z,101839.31
2022-12-18T03:08:41.834Z,101829.59
2022-12-18T03:12:27.686Z,101841.47
2022-12-18T03:15:52.221Z,101843.09
2022-12-18T03:19:18.940Z,101843.34
2022-12-18T03:22:41.409Z,101835.97
2022-12-18T03:26:07.816Z,101833.06
2022-12-18T03:29:36.344Z,101824.84
2022-12-18T03:33:05.081Z,101831.28
2022-12-18T03:36:29.107Z,101838.94
2022-12-18T03:39:50.860Z,101835.66
2022-12-18T03:43:21.094Z,101828.75
2022-12-18T03:46:49.314Z,101834.00
2022-12-18T03:50:15.946Z,101839.41
2022-12-18T03:53:46.154Z,101840.50
2022-12-18T03:57:14.375Z,101840.50
2022-12-18T04:00:37.081Z,101841.38
2022-12-18T04:04:00.228Z,101842.72
2022-12-18T04:07:23.607Z,101835.75
2022-12-18T04:10:47.102Z,101835.66
2022-12-18T04:14:11.844Z,101837.00
2022-12-18T04:17:36.222Z,101836.56
2022-12-18T04:20:57.983Z,101832.66
2022-12-18T04:24:20.138Z,101816.59
2022-12-18T04:27:43.359Z,101826.66
2022-12-18T04:31:05.907Z,101844.03
2022-12-18T04:34:27.947Z,101842.19
2022-12-18T04:37:49.885Z,101832.69
2022-12-18T04:41:11.959Z,101839.59
2022-12-18T04:44:35.403Z,101837.84
2022-12-18T04:47:59.479Z,101839.34
2022-12-18T04:51:26.301Z,101829.81
2022-12-18T04:54:49.118Z,101792.78
2022-12-18T04:58:10.850Z,101823.56
2022-12-18T05:01:35.694Z,101826.63
2022-12-18T05:04:57.695Z,101836.44
2022-12-18T05:08:19.627Z,101838.50
2022-12-18T05:11:42.171Z,101832.16
2022-12-18T05:15:05.895Z,101836.75
2022-12-18T05:18:29.168Z,101834.72
2022-12-18T05:21:51.001Z,101827.31
2022-12-18T05:25:12.714Z,101836.56
2022-12-18T05:28:36.484Z,101836.97
2022-12-18T05:31:58.215Z,101838.38
2022-12-18T05:35:21.711Z,101836.34
2022-12-18T05:38:43.900Z,101829.13
2022-12-18T05:42:05.700Z,101832.13
2022-12-18T05:45:27.769Z,101830.81
2022-12-18T05:48:51.356Z,101832.06
2022-12-18T05:52:17.983Z,101831.06
2022-12-18T05:55:41.839Z,101817.16
2022-12-18T05:59:03.817Z,101824.66
2022-12-18T06:02:26.016Z,101832.72
2022-12-18T06:05:48.025Z,101838.34
2022-12-18T06:09:11.313Z,101845.44
2022-12-18T06:12:34.567Z,101845.94
2022-12-18T06:15:56.583Z,101843.13
2022-12-18T06:19:18.516Z,101837.50
2022-12-18T06:22:40.529Z,101838.94
2022-12-18T06:26:08.927Z,101851.16
2022-12-18T06:29:31.065Z,101839.81
2022-12-18T06:32:56.652Z,101839.50
2022-12-18T06:36:18.927Z,101842.50
2022-12-18T06:39:40.760Z,101844.44
2022-12-18T06:43:04.320Z,101848.31
2022-12-18T06:46:26.468Z,101846.16
2022-12-18T06:49:50.454Z,101816.84
2022-12-18T06:53:12.338Z,101835.84
2022-12-18T06:56:33.908Z,101859.50
2022-12-18T06:59:57.299Z,101855.88
2022-12-18T07:03:19.364Z,101858.84
2022-12-18T07:06:41.215Z,101844.53
2022-12-18T07:10:03.051Z,101866.47
2022-12-18T07:13:25.056Z,101863.53
2022-12-18T07:16:48.473Z,101852.13
2022-12-18T07:20:11.810Z,101851.88
2022-12-18T07:23:34.495Z,101846.28
2022-12-18T07:26:56.245Z,101844.28
2022-12-18T07:30:18.124Z,101841.78
2022-12-18T07:33:42.020Z,101845.09
2022-12-18T07:37:04.386Z,101855.81
2022-12-18T07:40:26.186Z,101851.91
2022-12-18T07:43:48.634Z,101847.25
2022-12-18T07:47:12.115Z,101857.47
2022-12-18T07:50:35.618Z,101851.13
2022-12-18T07:53:58.854Z,101842.25
2022-12-18T07:57:48.435Z,101859.03
2022-12-18T08:01:06.988Z,101837.63
2022-12-18T08:04:29.007Z,101824.22
2022-12-18T08:07:51.871Z,101848.03
2022-12-18T08:11:13.943Z,101835.91
2022-12-18T08:14:35.697Z,101835.84
2022-12-18T08:17:58.828Z,101822.38
2022-12-18T08:21:24.174Z,101844.72
2022-12-18T08:24:47.368Z,101842.72
2022-12-18T08:28:08.904Z,101846.50
2022-12-18T08:31:31.826Z,101848.63
2022-12-18T08:34:56.412Z,101846.41
2022-12-18T08:38:18.308Z,101853.69
2022-12-18T08:41:41.645Z,101847.41
2022-12-18T08:45:02.256Z,101846.19
2022-12-18T08:48:24.259Z,101842.41
2022-12-18T08:51:46.290Z,101847.06
2022-12-18T08:55:09.706Z,101845.78
2022-12-18T08:58:33.215Z,101842.81
2022-12-18T09:01:56.677Z,101847.38
2022-12-18T09:05:18.423Z,101831.41
2022-12-18T09:08:40.489Z,101836.16
2022-12-18T09:12:02.459Z,101830.34
2022-12-18T09:15:25.415Z,101840.94
2022-12-18T09:18:46.829Z,101822.47
2022-12-18T09:22:08.666Z,101826.44
2022-12-18T09:25:34.065Z,101826.78
2022-12-18T09:28:56.736Z,101821.38
2022-12-18T09:32:22.470Z,101816.69
2022-12-18T09:35:46.736Z,101818.66
2022-12-18T09:39:09.070Z,101824.91
2022-12-18T09:42:31.076Z,101822.16
2022-12-18T09:45:57.404Z,101807.03
2022-12-18T09:49:25.731Z,101814.31
2022-12-18T09:52:51.553Z,101823.94
2022-12-18T09:56:18.645Z,101805.38
2022-12-18T09:59:41.334Z,101798.84
2022-12-18T10:03:11.260Z,101802.72
2022-12-18T10:06:41.586Z,101801.53
2022-12-18T10:10:11.579Z,101792.59
2022-12-18T10:13:40.714Z,101792.22
2022-12-18T10:17:09.122Z,101790.81
2022-12-18T10:20:36.829Z,101794.66
2022-12-18T10:24:17.246Z,101799.38
2022-12-18T10:27:39.177Z,101793.00
2022-12-18T10:31:01.324Z,101791.03
2022-12-18T10:34:22.947Z,101786.38
2022-12-18T10:38:02.306Z,101783.28
2022-12-18T10:41:29.463Z,101776.06
2022-12-18T10:45:03.862Z,101769.47
2022-12-18T10:48:26.378Z,101758.38
2022-12-18T10:51:48.381Z,101766.50
2022-12-18T10:55:19.175Z,101752.88
2022-12-18T10:58:59.127Z,101753.94
2022-12-18T11:02:29.099Z,101768.81
2022-12-18T11:06:07.477Z,101765.72
2022-12-18T11:09:30.400Z,101764.38
2022-12-18T11:12:51.741Z,101763.72
2022-12-18T11:16:22.056Z,101760.34
2022-12-18T11:19:43.834Z,101766.47
2022-12-18T11:23:07.631Z,101755.56
2022-12-18T11:26:37.442Z,101751.38
2022-12-18T11:30:11.222Z,101756.78
2022-12-18T11:33:34.920Z,101750.81
2022-12-18T11:36:57.212Z,101730.38
2022-12-18T11:40:22.589Z,101739.91
2022-12-18T11:43:52.477Z,101741.94
2022-12-18T11:47:24.184Z,101744.53
2022-12-18T11:50:51.853Z,101724.69
2022-12-18T11:54:15.522Z,101734.22
2022-12-18T11:57:46.547Z,101732.53
2022-12-18T12:01:18.404Z,101730.94
2022-12-18T12:04:56.913Z,101719.03
2022-12-18T12:08:28.722Z,101726.84
2022-12-18T12:12:02.719Z,101722.53
2022-12-18T12:15:36.989Z,101721.94
2022-12-18T12:19:10.316Z,101719.56
2022-12-18T12:22:40.853Z,101718.09
2022-12-18T12:26:09.236Z,101724.25
2022-12-18T12:29:43.103Z,101721.03
2022-12-18T12:33:16.676Z,101722.75
2022-12-18T12:36:52.839Z,101703.72
2022-12-18T12:40:50.114Z,101711.81
2022-12-18T12:44:06.713Z,101710.03
2022-12-18T12:47:33.472Z,101698.78
2022-12-18T12:50:58.816Z,101710.13
2022-12-18T12:54:25.603Z,101710.94
2022-12-18T12:57:53.743Z,101724.63
2022-12-18T13:01:27.470Z,101716.81
2022-12-18T13:04:59.123Z,101709.06
2022-12-18T13:08:30.044Z,101719.38
2022-12-18T13:12:12.576Z,101718.53
2022-12-18T13:15:40.795Z,101709.16
2022-12-18T13:19:04.287Z,101709.25
2022-12-18T13:22:37.200Z,101699.00
2022-12-18T13:26:00.225Z,101706.72
2022-12-18T13:29:44.846Z,101694.84
2022-12-18T13:37:46.592Z,101691.63
2022-12-18T13:41:26.376Z,101677.19
2022-12-18T13:44:49.263Z,101667.75
2022-12-18T13:48:25.738Z,101668.78
2022-12-18T13:51:50.901Z,101676.59
2022-12-18T13:55:21.356Z,101673.19
2022-12-18T13:58:43.697Z,101667.38
2022-12-18T14:02:15.953Z,101665.59
2022-12-18T14:05:42.084Z,101670.09
2022-12-18T14:09:06.451Z,101667.53
2022-12-18T14:12:51.838Z,101665.06
2022-12-18T14:16:17.653Z,101670.34
2022-12-18T14:19:39.635Z,101652.47
2022-12-18T14:23:02.287Z,101658.63
2022-12-18T14:26:29.434Z,101667.38
2022-12-18T14:29:53.678Z,101659.00
2022-12-18T14:33:16.897Z,101659.97
2022-12-18T14:36:42.418Z,101657.59
2022-12-18T14:40:11.279Z,101659.44
2022-12-18T14:43:36.923Z,101664.72
2022-12-18T14:47:02.395Z,101658.00
2022-12-18T14:50:24.325Z,101668.41
2022-12-18T14:53:54.712Z,101647.94
2022-12-18T14:57:23.651Z,101648.97
2022-12-18T15:00:45.351Z,101639.56
2022-12-18T15:04:29.703Z,101644.84
2022-12-18T15:07:53.248Z,101650.84
2022-12-18T15:11:48.583Z,101644.91
2022-12-18T15:15:43.534Z,101644.91
2022-12-18T15:19:05.233Z,101638.94
2022-12-18T15:22:30.834Z,101639.84
2022-12-18T15:25:58.986Z,101643.19
2022-12-18T15:29:23.337Z,101631.28
2022-12-18T15:32:45.897Z,101637.31
2022-12-18T15:36:12.559Z,101631.25
2022-12-18T15:39:36.973Z,101633.91
2022-12-18T15:43:16.715Z,101629.66
2022-12-18T15:46:38.676Z,101629.69
2022-12-18T15:50:01.080Z,101634.00
2022-12-18T15:53:22.954Z,101636.63
2022-12-18T15:57:03.673Z,101611.75
2022-12-18T16:00:25.629Z,101615.28
2022-12-18T16:03:47.436Z,101611.00
2022-12-18T16:07:16.233Z,101596.41
2022-12-18T16:10:43.754Z,101603.50
2022-12-18T16:14:08.430Z,101598.44
2022-12-18T16:17:30.359Z,101600.22
2022-12-18T16:20:52.440Z,101594.31
2022-12-18T16:24:18.343Z,101566.72
2022-12-18T16:27:42.573Z,101597.00
2022-12-18T16:31:07.742Z,101586.75
2022-12-18T16:34:35.218Z,101592.72
2022-12-18T16:37:57.291Z,101579.91
2022-12-18T16:41:33.441Z,101591.25
2022-12-18T16:44:55.194Z,101579.41
2022-12-18T16:48:18.693Z,101577.78
2022-12-18T16:51:40.785Z,101582.16
2022-12-18T16:55:02.632Z,101579.69
2022-12-18T16:58:26.774Z,101568.63
2022-12-18T17:01:49.121Z,101564.63
2022-12-18T17:05:12.623Z,101557.88
2022-12-18T17:08:34.621Z,101551.19
2022-12-18T17:11:57.292Z,101553.00
2022-12-18T17:15:19.614Z,101542.88
2022-12-18T17:18:42.127Z,101539.56
2022-12-18T17:22:05.417Z,101513.69
2022-12-18T17:25:27.494Z,101517.38
2022-12-18T17:28:49.502Z,101530.44
2022-12-18T17:32:11.438Z,101520.28
2022-12-18T17:35:33.531Z,101515.28
2022-12-18T17:38:59.022Z,101519.66
2022-12-18T17:42:20.768Z,101516.28
2022-12-18T17:45:42.631Z,101488.88
2022-12-18T17:49:04.837Z,101501.00
2022-12-18T17:52:26.558Z,101509.75
2022-12-18T17:55:56.681Z,101511.50
2022-12-18T17:59:18.711Z,101503.00
2022-12-18T18:02:40.767Z,101500.50
2022-12-18T18:06:03.935Z,101499.69
2022-12-18T18:09:26.193Z,101498.00
2022-12-18T18:13:06.704Z,101489.50
2022-12-18T18:16:29.738Z,101484.28
2022-12-18T18:19:54.057Z,101491.28
2022-12-18T18:23:16.075Z,101464.63
2022-12-18T18:26:38.454Z,101469.03
2022-12-18T18:30:01.672Z,101480.19
2022-12-18T18:33:23.918Z,101470.81
2022-12-18T18:36:46.766Z,101469.13
2022-12-18T18:40:12.292Z,101460.47
2022-12-18T18:43:34.794Z,101480.25
2022-12-18T18:47:00.901Z,101491.47
2022-12-18T18:50:23.901Z,101484.63
2022-12-18T18:53:46.991Z,101490.63
2022-12-18T18:57:20.250Z,101492.34
2022-12-18T19:00:42.536Z,101500.94
2022-12-18T19:04:06.763Z,101493.22
2022-12-18T19:07:30.414Z,101493.19
2022-12-18T19:10:57.710Z,101506.09
2022-12-18T19:14:20.434Z,101496.66
2022-12-18T19:17:42.450Z,101508.69
2022-12-18T19:21:12.174Z,101510.44
2022-12-18T19:24:34.462Z,101502.69
2022-12-18T19:27:56.306Z,101502.75
2022-12-18T19:31:24.829Z,101500.19
2022-12-18T19:34:48.194Z,101507.09
2022-12-18T19:38:12.406Z,101501.97
2022-12-18T19:41:34.176Z,101501.97
2022-12-18T19:44:56.700Z,101482.22
2022-12-18T19:48:18.186Z,101495.13
2022-12-18T19:51:40.529Z,101499.41
2022-12-18T19:55:03.949Z,101493.44
2022-12-18T19:58:25.765Z,101492.59
2022-12-18T20:01:48.073Z,101501.19
2022-12-18T20:05:13.021Z,101495.19
2022-12-18T20:08:35.023Z,101486.63
2022-12-18T20:11:58.647Z,101485.78
2022-12-18T20:15:20.666Z,101493.50
2022-12-18T20:18:42.861Z,101484.88
2022-12-18T20:22:05.229Z,101496.97
2022-12-18T20:25:27.119Z,101495.22
2022-12-18T20:28:50.378Z,101496.13
2022-12-18T20:32:12.611Z,101492.72
2022-12-18T20:35:34.645Z,101480.72
2022-12-18T20:39:01.527Z,101490.16
2022-12-18T20:42:24.703Z,101490.22
2022-12-18T20:45:48.021Z,101485.09
2022-12-18T20:49:11.213Z,101485.09
2022-12-18T20:52:33.283Z,101487.72
2022-12-18T20:55:55.236Z,101481.69
2022-12-18T20:59:17.515Z,101473.97
2022-12-18T21:02:41.100Z,101480.03
2022-12-18T21:06:04.018Z,101475.75
2022-12-18T21:09:26.222Z,101468.03
2022-12-18T21:13:02.985Z,101456.84
2022-12-18T21:16:26.255Z,101458.59
2022-12-18T21:19:49.526Z,101466.34
2022-12-18T21:23:16.640Z,101477.53
2022-12-18T21:26:45.143Z,101465.47
2022-12-18T21:30:09.155Z,101481.84
2022-12-18T21:33:31.193Z,101484.44
2022-12-18T21:36:54.962Z,101475.78
2022-12-18T21:40:16.644Z,101477.56
2022-12-18T21:43:56.246Z,101474.13
2022-12-18T21:47:22.893Z,101451.75
2022-12-18T21:50:45.014Z,101465.59
2022-12-18T21:54:08.737Z,101482.78
2022-12-18T21:57:30.957Z,101480.22
2022-12-18T22:00:54.007Z,101482.81
2022-12-18T22:04:16.739Z,101478.50
2022-12-18T22:07:38.595Z,101479.38
2022-12-18T22:11:04.910Z,101466.47
2022-12-18T22:14:26.892Z,101485.41
2022-12-18T22:17:48.563Z,101477.69
2022-12-18T22:21:28.718Z,101479.41
2022-12-18T22:24:51.314Z,101478.56
2022-12-18T22:28:31.619Z,101452.72
2022-12-18T22:31:53.771Z,101489.75
2022-12-18T22:35:16.261Z,101473.44
2022-12-18T22:38:38.317Z,101480.34
2022-12-18T22:42:00.602Z,101482.94
2022-12-18T22:45:24.589Z,101479.47
2022-12-18T22:48:46.583Z,101490.63
2022-12-18T22:52:09.867Z,101482.06
2022-12-18T22:55:31.399Z,101472.59
2022-12-18T22:58:53.449Z,101483.78
2022-12-18T23:02:17.861Z,101481.22
2022-12-18T23:05:39.886Z,101488.94
2022-12-18T23:09:01.633Z,101493.25
2022-12-18T23:12:23.355Z,101501.84
2022-12-18T23:15:45.317Z,101497.59
2022-12-18T23:19:08.601Z,101494.13
2022-12-18T23:22:31.413Z,101498.38
2022-12-18T23:26:01.926Z,101498.44
2022-12-18T23:29:23.728Z,101491.56
2022-12-18T23:32:45.575Z,101486.34
2022-12-18T23:36:09.347Z,101496.72
2022-12-18T23:39:31.316Z,101496.72
2022-12-18T23:42:53.012Z,101497.59
2022-12-18T23:46:19.485Z,101514.72
2022-12-18T23:49:41.391Z,101519.88
2022-12-18T23:53:05.889Z,101519.06
2022-12-18T23:56:29.003Z,101523.34
2022-12-18T23:59:50.683Z,101525.09
